sensor_id;sensor_type;location;lat;lon;timestamp;pressure;altitude;pressure_sealevel;temperature;humidity
25232;BME280;13176;51.140;6.290;2023-04-02T00:06:35;100176.22;;;10.73;100.00
25232;BME280;13176;51.140;6.290;2023-04-02T00:09:28;100157.81;;;10.41;100.00
25232;BME280;13176;51.140;6.290;2023-04-02T00:11:57;100075.31;;;10.00;100.00
25232;BME280;13176;51.140;6.290;2023-04-02T00:14:30;100101.13;;;10.12;100.00
25232;BME280;13176;51.140;6.290;2023-04-02T00:17:00;100173.72;;;10.29;100.00
25232;BME280;13176;51.140;6.290;2023-04-02T00:19:35;100194.13;;;10.50;100.00
25232;BME280;13176;51.140;6.290;2023-04-02T00:22:06;100102.75;;;9.73;100.00
25232;BME280;13176;51.140;6.290;2023-04-02T00:24:34;100145.47;;;10.10;100.00
25232;BME280;13176;51.140;6.290;2023-04-02T00:27:00;100194.19;;;10.47;100.00
25232;BME280;13176;51.140;6.290;2023-04-02T00:29:27;100183.63;;;10.53;100.00
25232;BME280;13176;51.140;6.290;2023-04-02T00:31:54;100195.63;;;10.60;100.00
25232;BME280;13176;51.140;6.290;2023-04-02T00:34:36;100186.78;;;10.67;99.38
25232;BME280;13176;51.140;6.290;2023-04-02T00:37:16;100182.75;;;10.53;99.44
25232;BME280;13176;51.140;6.290;2023-04-02T00:39:50;100223.25;;;10.29;100.00
25232;BME280;13176;51.140;6.290;2023-04-02T00:42:18;100091.81;;;9.58;100.00
25232;BME280;13176;51.140;6.290;2023-04-02T00:44:47;100233.94;;;10.58;100.00
25232;BME280;13176;51.140;6.290;2023-04-02T00:47:19;100196.41;;;10.24;100.00
25232;BME280;13176;51.140;6.290;2023-04-02T00:49:49;100240.44;;;10.38;100.00
25232;BME280;13176;51.140;6.290;2023-04-02T00:52:19;100167.59;;;10.30;99.95
25232;BME280;13176;51.140;6.290;2023-04-02T00:54:50;100256.13;;;10.77;100.00
25232;BME280;13176;51.140;6.290;2023-04-02T00:57:20;100249.19;;;10.76;98.81
25232;BME280;13176;51.140;6.290;2023-04-02T01:02:36;100249.84;;;10.46;99.80
25232;BME280;13176;51.140;6.290;2023-04-02T01:05:21;100254.97;;;10.51;99.45
25232;BME280;13176;51.140;6.290;2023-04-02T01:08:06;100227.63;;;10.27;99.31
25232;BME280;13176;51.140;6.290;2023-04-02T01:10:49;100262.47;;;10.23;100.00
25232;BME280;13176;51.140;6.290;2023-04-02T01:13:36;100285.09;;;10.21;100.00
25232;BME280;13176;51.140;6.290;2023-04-02T01:16:31;100279.56;;;10.39;100.00
25232;BME280;13176;51.140;6.290;2023-04-02T01:21:54;100291.88;;;10.31;99.44
25232;BME280;13176;51.140;6.290;2023-04-02T01:24:23;100285.41;;;10.07;100.00
25232;BME280;13176;51.140;6.290;2023-04-02T01:27:04;100293.06;;;10.16;100.00
25232;BME280;13176;51.140;6.290;2023-04-02T01:29:42;100209.56;;;9.75;99.56
25232;BME280;13176;51.140;6.290;2023-04-02T01:32:13;100304.25;;;10.20;99.64
25232;BME280;13176;51.140;6.290;2023-04-02T01:34:41;100301.00;;;10.10;100.00
25232;BME280;13176;51.140;6.290;2023-04-02T01:46:22;100316.47;;;10.19;98.65
25232;BME280;13176;51.140;6.290;2023-04-02T01:48:51;100325.69;;;10.36;98.41
25232;BME280;13176;51.140;6.290;2023-04-02T01:51:30;100348.06;;;10.47;98.29
25232;BME280;13176;51.140;6.290;2023-04-02T01:54:00;100318.59;;;9.96;98.92
25232;BME280;13176;51.140;6.290;2023-04-02T01:56:28;100331.13;;;10.24;98.33
25232;BME280;13176;51.140;6.290;2023-04-02T01:58:56;100275.47;;;9.80;98.28
25232;BME280;13176;51.140;6.290;2023-04-02T02:01:29;100291.28;;;9.68;98.67
25232;BME280;13176;51.140;6.290;2023-04-02T02:03:58;100241.13;;;9.57;97.94
25232;BME280;13176;51.140;6.290;2023-04-02T02:06:25;100262.84;;;9.56;98.11
25232;BME280;13176;51.140;6.290;2023-04-02T02:08:54;100339.38;;;10.02;96.89
25232;BME280;13176;51.140;6.290;2023-04-02T02:11:25;100253.94;;;9.16;99.25
25232;BME280;13176;51.140;6.290;2023-04-02T02:13:55;100197.13;;;8.89;99.28
25232;BME280;13176;51.140;6.290;2023-04-02T02:16:23;100274.38;;;9.41;98.61
25232;BME280;13176;51.140;6.290;2023-04-02T02:18:55;100374.47;;;9.80;98.71
25232;BME280;13176;51.140;6.290;2023-04-02T02:21:45;100296.34;;;9.24;99.13
25232;BME280;13176;51.140;6.290;2023-04-02T02:24:31;100392.31;;;10.02;98.89
25232;BME280;13176;51.140;6.290;2023-04-02T02:27:10;100393.94;;;10.09;97.75
25232;BME280;13176;51.140;6.290;2023-04-02T02:29:41;100302.25;;;9.35;97.72
25232;BME280;13176;51.140;6.290;2023-04-02T02:32:09;100312.78;;;9.26;98.60
25232;BME280;13176;51.140;6.290;2023-04-02T02:34:40;100410.81;;;9.86;98.59
25232;BME280;13176;51.140;6.290;2023-04-02T02:37:25;100408.25;;;9.84;97.86
25232;BME280;13176;51.140;6.290;2023-04-02T02:39:56;100424.53;;;10.00;97.58
25232;BME280;13176;51.140;6.290;2023-04-02T02:42:37;100433.94;;;10.10;96.66
25232;BME280;13176;51.140;6.290;2023-04-02T02:45:12;100447.09;;;10.01;97.37
25232;BME280;13176;51.140;6.290;2023-04-02T02:47:40;100449.25;;;9.72;98.51
25232;BME280;13176;51.140;6.290;2023-04-02T02:50:13;100293.34;;;8.92;96.75
25232;BME280;13176;51.140;6.290;2023-04-02T02:52:48;100388.97;;;9.40;96.30
25232;BME280;13176;51.140;6.290;2023-04-02T02:55:18;100454.22;;;9.87;96.94
25232;BME280;13176;51.140;6.290;2023-04-02T02:57:53;100416.56;;;9.51;97.05
25232;BME280;13176;51.140;6.290;2023-04-02T03:00:21;100386.59;;;9.23;96.75
25232;BME280;13176;51.140;6.290;2023-04-02T03:02:51;100363.34;;;9.10;95.30
25232;BME280;13176;51.140;6.290;2023-04-02T03:05:21;100469.13;;;9.79;95.48
25232;BME280;13176;51.140;6.290;2023-04-02T03:07:50;100286.81;;;8.64;95.42
25232;BME280;13176;51.140;6.290;2023-04-02T03:10:26;100474.22;;;9.85;93.58
25232;BME280;13176;51.140;6.290;2023-04-02T03:13:11;100390.03;;;9.24;94.26
25232;BME280;13176;51.140;6.290;2023-04-02T03:21:23;100510.41;;;10.07;92.65
25232;BME280;13176;51.140;6.290;2023-04-02T03:23:55;100521.88;;;9.93;92.41
25232;BME280;13176;51.140;6.290;2023-04-02T03:26:33;100411.81;;;9.18;92.36
25232;BME280;13176;51.140;6.290;2023-04-02T03:29:21;100510.13;;;9.65;92.84
25232;BME280;13176;51.140;6.290;2023-04-02T03:32:04;100525.75;;;9.65;93.00
25232;BME280;13176;51.140;6.290;2023-04-02T03:34:41;100531.44;;;9.94;93.57
25232;BME280;13176;51.140;6.290;2023-04-02T03:42:40;100560.97;;;9.25;95.55
25232;BME280;13176;51.140;6.290;2023-04-02T03:48:07;100560.81;;;9.40;95.53
25232;BME280;13176;51.140;6.290;2023-04-02T03:53:03;100456.84;;;8.45;94.36
25232;BME280;13176;51.140;6.290;2023-04-02T03:55:32;100460.16;;;8.61;93.71
25232;BME280;13176;51.140;6.290;2023-04-02T03:58:22;100594.50;;;9.52;93.55
25232;BME280;13176;51.140;6.290;2023-04-02T04:01:03;100579.25;;;9.17;95.00
25232;BME280;13176;51.140;6.290;2023-04-02T04:06:10;100586.22;;;9.15;93.32
25232;BME280;13176;51.140;6.290;2023-04-02T04:11:18;100599.16;;;9.23;93.57
25232;BME280;13176;51.140;6.290;2023-04-02T04:13:55;100623.38;;;9.31;92.66
25232;BME280;13176;51.140;6.290;2023-04-02T04:16:28;100549.13;;;8.97;91.65
25232;BME280;13176;51.140;6.290;2023-04-02T04:19:08;100645.72;;;9.50;91.52
25232;BME280;13176;51.140;6.290;2023-04-02T04:21:36;100540.66;;;8.74;91.65
25232;BME280;13176;51.140;6.290;2023-04-02T04:24:26;100650.94;;;9.50;91.37
25232;BME280;13176;51.140;6.290;2023-04-02T04:27:05;100632.13;;;9.21;92.18
25232;BME280;13176;51.140;6.290;2023-04-02T04:29:48;100659.91;;;9.22;92.77
25232;BME280;13176;51.140;6.290;2023-04-02T04:32:23;100648.63;;;9.24;92.21
25232;BME280;13176;51.140;6.290;2023-04-02T04:35:05;100536.84;;;8.01;93.88
25232;BME280;13176;51.140;6.290;2023-04-02T04:37:36;100660.84;;;9.13;93.16
25232;BME280;13176;51.140;6.290;2023-04-02T04:40:15;100645.09;;;9.28;90.77
25232;BME280;13176;51.140;6.290;2023-04-02T04:42:45;100659.84;;;9.28;91.67
25232;BME280;13176;51.140;6.290;2023-04-02T04:45:29;100646.59;;;9.49;89.53
25232;BME280;13176;51.140;6.290;2023-04-02T04:48:14;100691.66;;;9.58;89.58
25232;BME280;13176;51.140;6.290;2023-04-02T04:53:22;100703.78;;;9.61;88.98
25232;BME280;13176;51.140;6.290;2023-04-02T04:55:52;100707.50;;;9.34;90.96
25232;BME280;13176;51.140;6.290;2023-04-02T04:58:31;100692.84;;;9.23;90.17
25232;BME280;13176;51.140;6.290;2023-04-02T05:01:04;100704.03;;;9.35;89.94
25232;BME280;13176;51.140;6.290;2023-04-02T05:03:40;100731.69;;;9.47;89.35
25232;BME280;13176;51.140;6.290;2023-04-02T05:08:54;100656.63;;;9.02;90.68
25232;BME280;13176;51.140;6.290;2023-04-02T05:11:31;100732.50;;;9.52;89.01
25232;BME280;13176;51.140;6.290;2023-04-02T05:14:03;100693.88;;;9.07;88.97
25232;BME280;13176;51.140;6.290;2023-04-02T05:16:41;100693.44;;;8.42;91.94
25232;BME280;13176;51.140;6.290;2023-04-02T05:22:14;100785.69;;;9.25;92.07
25232;BME280;13176;51.140;6.290;2023-04-02T05:24:52;100793.53;;;9.21;91.13
25232;BME280;13176;51.140;6.290;2023-04-02T05:27:24;100788.44;;;9.02;92.29
25232;BME280;13176;51.140;6.290;2023-04-02T05:32:53;100709.91;;;8.38;92.95
25232;BME280;13176;51.140;6.290;2023-04-02T05:35:30;100709.97;;;8.29;92.38
25232;BME280;13176;51.140;6.290;2023-04-02T05:37:58;100720.28;;;8.41;91.99
25232;BME280;13176;51.140;6.290;2023-04-02T05:40:32;100826.66;;;8.98;92.00
25232;BME280;13176;51.140;6.290;2023-04-02T05:43:02;100748.84;;;8.56;91.03
25232;BME280;13176;51.140;6.290;2023-04-02T05:45:35;100824.03;;;9.01;90.78
25232;BME280;13176;51.140;6.290;2023-04-02T05:48:18;100826.53;;;9.13;91.62
25232;BME280;13176;51.140;6.290;2023-04-02T05:50:50;100816.25;;;8.92;91.01
25232;BME280;13176;51.140;6.290;2023-04-02T05:53:30;100797.09;;;9.08;88.65
25232;BME280;13176;51.140;6.290;2023-04-02T05:58:49;100828.28;;;9.11;90.36
25232;BME280;13176;51.140;6.290;2023-04-02T06:01:40;100809.09;;;9.27;88.06
25232;BME280;13176;51.140;6.290;2023-04-02T06:06:46;100862.97;;;9.16;88.47
25232;BME280;13176;51.140;6.290;2023-04-02T06:09:35;100884.78;;;8.94;90.08
25232;BME280;13176;51.140;6.290;2023-04-02T06:14:49;100860.69;;;8.40;92.11
25232;BME280;13176;51.140;6.290;2023-04-02T06:17:17;100897.03;;;8.62;91.29
25232;BME280;13176;51.140;6.290;2023-04-02T06:19:44;100876.31;;;8.28;92.41
25232;BME280;13176;51.140;6.290;2023-04-02T06:22:34;100906.56;;;8.65;93.19
25232;BME280;13176;51.140;6.290;2023-04-02T06:25:14;100915.94;;;9.04;90.64
25232;BME280;13176;51.140;6.290;2023-04-02T06:27:45;100873.66;;;8.56;91.78
25232;BME280;13176;51.140;6.290;2023-04-02T06:30:23;100910.69;;;9.12;90.25
25232;BME280;13176;51.140;6.290;2023-04-02T06:32:51;100861.47;;;8.73;87.89
25232;BME280;13176;51.140;6.290;2023-04-02T06:35:17;100896.00;;;9.03;88.49
25232;BME280;13176;51.140;6.290;2023-04-02T06:37:49;100934.19;;;9.03;87.95
25232;BME280;13176;51.140;6.290;2023-04-02T06:40:37;100942.03;;;8.94;88.19
25232;BME280;13176;51.140;6.290;2023-04-02T06:43:12;100936.09;;;8.23;90.57
25232;BME280;13176;51.140;6.290;2023-04-02T06:45:42;100956.00;;;8.02;93.42
25232;BME280;13176;51.140;6.290;2023-04-02T06:48:18;100945.63;;;8.41;91.71
25232;BME280;13176;51.140;6.290;2023-04-02T06:50:48;100970.72;;;8.52;91.60
25232;BME280;13176;51.140;6.290;2023-04-02T06:53:21;100975.94;;;8.52;90.87
25232;BME280;13176;51.140;6.290;2023-04-02T06:55:52;100942.16;;;8.31;91.14
25232;BME280;13176;51.140;6.290;2023-04-02T06:58:20;100981.13;;;8.40;90.99
25232;BME280;13176;51.140;6.290;2023-04-02T07:00:48;100991.53;;;8.58;91.23
25232;BME280;13176;51.140;6.290;2023-04-02T07:03:22;101001.91;;;8.73;90.21
25232;BME280;13176;51.140;6.290;2023-04-02T07:05:49;101000.16;;;8.78;89.97
25232;BME280;13176;51.140;6.290;2023-04-02T07:08:19;101010.50;;;9.01;89.45
25232;BME280;13176;51.140;6.290;2023-04-02T07:10:46;101017.47;;;8.88;88.51
25232;BME280;13176;51.140;6.290;2023-04-02T07:13:21;100991.47;;;8.76;88.43
25232;BME280;13176;51.140;6.290;2023-04-02T07:15:50;101034.84;;;8.74;88.76
25232;BME280;13176;51.140;6.290;2023-04-02T07:18:25;100970.75;;;8.24;88.11
25232;BME280;13176;51.140;6.290;2023-04-02T07:20:52;101054.78;;;8.71;88.68
25232;BME280;13176;51.140;6.290;2023-04-02T07:23:18;100898.81;;;8.06;87.80
25232;BME280;13176;51.140;6.290;2023-04-02T07:25:53;101059.09;;;9.03;86.57
25232;BME280;13176;51.140;6.290;2023-04-02T07:28:20;101026.19;;;8.24;88.87
25232;BME280;13176;51.140;6.290;2023-04-02T07:30:49;100969.88;;;8.32;87.94
25232;BME280;13176;51.140;6.290;2023-04-02T07:33:23;100944.75;;;8.34;87.14
25232;BME280;13176;51.140;6.290;2023-04-02T07:35:56;100978.53;;;8.55;86.99
25232;BME280;13176;51.140;6.290;2023-04-02T07:38:23;101074.66;;;9.27;84.82
25232;BME280;13176;51.140;6.290;2023-04-02T07:40:49;100954.28;;;8.35;85.80
25232;BME280;13176;51.140;6.290;2023-04-02T07:43:16;101001.94;;;8.58;84.34
25232;BME280;13176;51.140;6.290;2023-04-02T07:45:42;101001.88;;;7.89;85.01
25232;BME280;13176;51.140;6.290;2023-04-02T07:48:12;101038.31;;;8.49;85.53
25232;BME280;13176;51.140;6.290;2023-04-02T07:50:40;100984.53;;;7.83;86.02
25232;BME280;13176;51.140;6.290;2023-04-02T07:53:11;101029.66;;;8.59;83.68
25232;BME280;13176;51.140;6.290;2023-04-02T07:55:42;100946.44;;;7.79;83.37
25232;BME280;13176;51.140;6.290;2023-04-02T07:58:10;100986.22;;;7.66;83.65
25232;BME280;13176;51.140;6.290;2023-04-02T08:00:39;100902.22;;;7.22;85.86
25232;BME280;13176;51.140;6.290;2023-04-02T08:03:06;100999.28;;;7.82;84.47
25232;BME280;13176;51.140;6.290;2023-04-02T08:05:33;101074.72;;;8.46;84.49
25232;BME280;13176;51.140;6.290;2023-04-02T08:08:00;101109.41;;;8.33;83.10
25232;BME280;13176;51.140;6.290;2023-04-02T08:10:26;101073.00;;;8.57;82.75
25232;BME280;13176;51.140;6.290;2023-04-02T08:12:53;101109.41;;;8.57;82.47
25232;BME280;13176;51.140;6.290;2023-04-02T08:15:20;101147.56;;;8.88;83.27
25232;BME280;13176;51.140;6.290;2023-04-02T08:17:46;101085.13;;;8.49;82.05
25232;BME280;13176;51.140;6.290;2023-04-02T08:20:18;101153.66;;;9.06;81.60
25232;BME280;13176;51.140;6.290;2023-04-02T08:22:52;101048.72;;;8.16;81.93
25232;BME280;13176;51.140;6.290;2023-04-02T08:25:36;101107.69;;;8.68;82.12
25232;BME280;13176;51.140;6.290;2023-04-02T08:28:02;100993.22;;;8.08;80.52
25232;BME280;13176;51.140;6.290;2023-04-02T08:30:29;101125.00;;;8.45;80.62
25232;BME280;13176;51.140;6.290;2023-04-02T08:32:55;101147.50;;;8.40;79.76
25232;BME280;13176;51.140;6.290;2023-04-02T08:35:23;101102.41;;;8.17;80.81
25232;BME280;13176;51.140;6.290;2023-04-02T08:37:49;101100.72;;;8.33;80.94
25232;BME280;13176;51.140;6.290;2023-04-02T08:46:21;101039.19;;;8.39;79.83
25232;BME280;13176;51.140;6.290;2023-04-02T08:48:56;101111.97;;;8.39;77.75
25232;BME280;13176;51.140;6.290;2023-04-02T08:51:32;101153.63;;;8.68;78.56
25232;BME280;13176;51.140;6.290;2023-04-02T08:59:45;101218.72;;;9.26;78.19
25232;BME280;13176;51.140;6.290;2023-04-02T09:02:46;101243.00;;;9.49;78.73
25232;BME280;13176;51.140;6.290;2023-04-02T09:05:29;101140.63;;;8.54;79.02
25232;BME280;13176;51.140;6.290;2023-04-02T09:07:59;101126.78;;;8.67;76.81
25232;BME280;13176;51.140;6.290;2023-04-02T09:10:40;101263.84;;;9.10;78.87
25232;BME280;13176;51.140;6.290;2023-04-02T09:13:15;101133.72;;;8.68;78.05
25232;BME280;13176;51.140;6.290;2023-04-02T09:15:43;101265.56;;;9.20;77.29
25232;BME280;13176;51.140;6.290;2023-04-02T09:18:17;101256.88;;;9.63;76.77
25232;BME280;13176;51.140;6.290;2023-04-02T09:20:45;101206.53;;;8.86;76.75
25232;BME280;13176;51.140;6.290;2023-04-02T09:23:17;101223.91;;;8.90;76.77
25232;BME280;13176;51.140;6.290;2023-04-02T09:25:51;101295.06;;;9.13;76.90
25232;BME280;13176;51.140;6.290;2023-04-02T09:28:32;101208.25;;;8.75;77.01
25232;BME280;13176;51.140;6.290;2023-04-02T09:31:15;101297.69;;;9.25;76.57
25232;BME280;13176;51.140;6.290;2023-04-02T09:33:48;101157.94;;;8.55;76.35
25232;BME280;13176;51.140;6.290;2023-04-02T09:36:31;101310.72;;;9.73;75.51
25232;BME280;13176;51.140;6.290;2023-04-02T09:39:04;101218.72;;;9.15;73.92
25232;BME280;13176;51.140;6.290;2023-04-02T09:41:41;101119.81;;;8.57;74.50
25232;BME280;13176;51.140;6.290;2023-04-02T09:44:26;101241.28;;;9.42;74.07
25232;BME280;13176;51.140;6.290;2023-04-02T09:46:59;101246.50;;;9.33;73.82
25232;BME280;13176;51.140;6.290;2023-04-02T09:49:33;101223.06;;;9.06;73.08
25232;BME280;13176;51.140;6.290;2023-04-02T09:52:20;101322.88;;;9.65;74.40
25232;BME280;13176;51.140;6.290;2023-04-02T09:55:25;101329.84;;;9.75;73.61
25232;BME280;13176;51.140;6.290;2023-04-02T09:58:10;101253.44;;;9.28;74.81
25232;BME280;13176;51.140;6.290;2023-04-02T10:00:48;101317.66;;;9.86;73.15
25232;BME280;13176;51.140;6.290;2023-04-02T10:03:31;101343.75;;;10.13;73.48
25232;BME280;13176;51.140;6.290;2023-04-02T10:08:37;101293.38;;;9.78;71.59
25232;BME280;13176;51.140;6.290;2023-04-02T10:11:27;101288.97;;;10.05;73.00
25232;BME280;13176;51.140;6.290;2023-04-02T10:14:17;101366.28;;;10.43;71.86
25232;BME280;13176;51.140;6.290;2023-04-02T10:16:55;101340.22;;;10.25;71.41
25232;BME280;13176;51.140;6.290;2023-04-02T10:19:31;101322.88;;;10.13;70.34
25232;BME280;13176;51.140;6.290;2023-04-02T10:22:12;101341.97;;;9.34;71.97
25232;BME280;13176;51.140;6.290;2023-04-02T10:24:39;101233.47;;;8.90;71.50
25232;BME280;13176;51.140;6.290;2023-04-02T10:30:29;101407.97;;;9.42;71.75
25232;BME280;13176;51.140;6.290;2023-04-02T10:33:13;101398.44;;;9.86;72.14
25232;BME280;13176;51.140;6.290;2023-04-02T10:39:01;101428.88;;;10.28;71.12
25232;BME280;13176;51.140;6.290;2023-04-02T10:41:33;101412.34;;;9.74;70.26
25232;BME280;13176;51.140;6.290;2023-04-02T10:44:19;101381.91;;;9.36;71.79
25232;BME280;13176;51.140;6.290;2023-04-02T10:52:34;101421.94;;;10.42;71.50
25232;BME280;13176;51.140;6.290;2023-04-02T10:55:25;101408.00;;;10.40;72.04
25232;BME280;13176;51.140;6.290;2023-04-02T11:02:23;101257.72;;;9.96;69.74
25232;BME280;13176;51.140;6.290;2023-04-02T11:08:58;101387.84;;;10.92;68.42
25232;BME280;13176;51.140;6.290;2023-04-02T11:11:42;101286.41;;;9.71;68.34
25232;BME280;13176;51.140;6.290;2023-04-02T11:32:32;101404.50;;;9.55;69.09
25232;BME280;13176;51.140;6.290;2023-04-02T11:35:03;101448.88;;;9.95;68.74
25232;BME280;13176;51.140;6.290;2023-04-02T11:42:43;101429.78;;;10.19;67.86
25232;BME280;13176;51.140;6.290;2023-04-02T11:50:35;101519.28;;;10.71;68.10
25232;BME280;13176;51.140;6.290;2023-04-02T11:55:46;101437.56;;;10.39;67.02
25232;BME280;13176;51.140;6.290;2023-04-02T11:58:41;101399.38;;;10.03;67.93
25232;BME280;13176;51.140;6.290;2023-04-02T12:09:28;101507.09;;;10.82;66.55
25232;BME280;13176;51.140;6.290;2023-04-02T12:14:52;101561.06;;;10.47;66.14
25232;BME280;13176;51.140;6.290;2023-04-02T12:17:27;101482.81;;;10.12;67.03
25232;BME280;13176;51.140;6.290;2023-04-02T12:20:00;101448.84;;;9.83;67.23
25232;BME280;13176;51.140;6.290;2023-04-02T12:22:31;101488.00;;;10.53;67.80
25232;BME280;13176;51.140;6.290;2023-04-02T12:27:43;101520.97;;;11.11;65.31
25232;BME280;13176;51.140;6.290;2023-04-02T12:30:15;101468.81;;;10.84;65.54
25232;BME280;13176;51.140;6.290;2023-04-02T12:32:42;101498.41;;;10.74;64.82
25232;BME280;13176;51.140;6.290;2023-04-02T12:35:29;101574.97;;;10.93;64.98
25232;BME280;13176;51.140;6.290;2023-04-02T12:37:57;101505.38;;;10.60;67.03
25232;BME280;13176;51.140;6.290;2023-04-02T12:40:25;101421.94;;;10.24;65.35
25232;BME280;13176;51.140;6.290;2023-04-02T12:42:53;101484.50;;;10.66;65.61
25232;BME280;13176;51.140;6.290;2023-04-02T12:45:23;101421.94;;;10.33;64.41
25232;BME280;13176;51.140;6.290;2023-04-02T12:47:56;101554.03;;;11.09;65.34
25232;BME280;13176;51.140;6.290;2023-04-02T12:50:25;101574.09;;;10.89;64.59
25232;BME280;13176;51.140;6.290;2023-04-02T12:52:53;101584.50;;;11.13;64.34
25232;BME280;13176;51.140;6.290;2023-04-02T12:55:22;101510.59;;;10.78;64.91
25232;BME280;13176;51.140;6.290;2023-04-02T12:57:57;101593.19;;;11.24;64.72
25232;BME280;13176;51.140;6.290;2023-04-02T13:01:02;101585.38;;;11.09;64.73
25232;BME280;13176;51.140;6.290;2023-04-02T13:06:34;101414.13;;;10.02;65.23
25232;BME280;13176;51.140;6.290;2023-04-02T13:09:04;101491.50;;;10.49;63.49
25232;BME280;13176;51.140;6.290;2023-04-02T13:11:39;101496.72;;;10.55;65.19
25232;BME280;13176;51.140;6.290;2023-04-02T13:14:19;101528.84;;;10.05;64.65
25232;BME280;13176;51.140;6.290;2023-04-02T13:16:47;101534.09;;;10.36;64.32
25232;BME280;13176;51.140;6.290;2023-04-02T13:19:24;101519.31;;;10.29;64.93
25232;BME280;13176;51.140;6.290;2023-04-02T13:22:30;101414.97;;;9.79;63.83
25232;BME280;13176;51.140;6.290;2023-04-02T13:24:57;101520.19;;;10.24;64.68
25232;BME280;13176;51.140;6.290;2023-04-02T13:27:23;101544.53;;;10.39;64.33
25232;BME280;13176;51.140;6.290;2023-04-02T13:29:50;101566.28;;;10.73;63.43
25232;BME280;13176;51.140;6.290;2023-04-02T13:32:20;101534.97;;;10.18;62.91
25232;BME280;13176;51.140;6.290;2023-04-02T13:34:49;101492.31;;;9.96;63.96
25232;BME280;13176;51.140;6.290;2023-04-02T13:37:16;101532.34;;;10.15;63.67
25232;BME280;13176;51.140;6.290;2023-04-02T13:39:42;101581.94;;;10.68;63.76
25232;BME280;13176;51.140;6.290;2023-04-02T13:42:10;101563.66;;;10.85;64.99
25232;BME280;13176;51.140;6.290;2023-04-02T13:44:38;101529.72;;;10.80;64.02
25232;BME280;13176;51.140;6.290;2023-04-02T13:47:04;101522.78;;;10.67;62.96
25232;BME280;13176;51.140;6.290;2023-04-02T13:49:31;101583.63;;;11.23;63.12
25232;BME280;13176;51.140;6.290;2023-04-02T13:52:01;101510.56;;;10.86;62.49
25232;BME280;13176;51.140;6.290;2023-04-02T13:55:13;101576.59;;;11.34;61.84
25232;BME280;13176;51.140;6.290;2023-04-02T13:57:51;101613.09;;;11.70;60.88
25232;BME280;13176;51.140;6.290;2023-04-02T14:00:18;101574.84;;;11.57;60.85
25232;BME280;13176;51.140;6.290;2023-04-02T14:03:12;101564.47;;;11.21;61.62
25232;BME280;13176;51.140;6.290;2023-04-02T14:05:50;101525.31;;;11.00;62.59
25232;BME280;13176;51.140;6.290;2023-04-02T14:11:51;101672.38;;;11.68;60.33
25232;BME280;13176;51.140;6.290;2023-04-02T14:14:51;101665.44;;;11.58;61.28
25232;BME280;13176;51.140;6.290;2023-04-02T14:20:35;101635.00;;;11.11;59.55
25232;BME280;13176;51.140;6.290;2023-04-02T14:23:24;101639.31;;;11.34;60.55
25232;BME280;13176;51.140;6.290;2023-04-02T14:26:25;101689.84;;;11.63;61.44
25232;BME280;13176;51.140;6.290;2023-04-02T14:29:21;101648.06;;;10.73;60.20
25232;BME280;13176;51.140;6.290;2023-04-02T14:48:47;101720.34;;;11.41;59.96
25232;BME280;13176;51.140;6.290;2023-04-02T14:51:37;101713.38;;;11.43;61.97
25232;BME280;13176;51.140;6.290;2023-04-02T14:56:56;101700.28;;;11.06;60.34
25232;BME280;13176;51.140;6.290;2023-04-02T15:02:25;101727.28;;;11.11;60.15
25232;BME280;13176;51.140;6.290;2023-04-02T15:04:59;101724.59;;;10.63;60.35
25232;BME280;13176;51.140;6.290;2023-04-02T15:07:45;101705.53;;;10.91;60.85
25232;BME280;13176;51.140;6.290;2023-04-02T15:10:27;101690.75;;;11.10;58.55
25232;BME280;13176;51.140;6.290;2023-04-02T15:12:55;101738.63;;;11.13;58.47
25232;BME280;13176;51.140;6.290;2023-04-02T15:15:48;101649.81;;;10.82;59.18
25232;BME280;13176;51.140;6.290;2023-04-02T15:18:17;101631.53;;;11.00;60.10
25232;BME280;13176;51.140;6.290;2023-04-02T15:21:06;101691.50;;;11.85;57.66
25232;BME280;13176;51.140;6.290;2023-04-02T15:32:00;101746.47;;;13.45;54.73
25232;BME280;13176;51.140;6.290;2023-04-02T15:34:38;101717.13;;;13.01;54.20
25232;BME280;13176;51.140;6.290;2023-04-02T15:37:32;101746.97;;;12.73;53.19
25232;BME280;13176;51.140;6.290;2023-04-02T15:43:27;101750.53;;;12.54;53.61
25232;BME280;13176;51.140;6.290;2023-04-02T15:51:30;101750.72;;;14.41;51.48
25232;BME280;13176;51.140;6.290;2023-04-02T15:54:10;101716.00;;;14.18;51.41
25232;BME280;13176;51.140;6.290;2023-04-02T15:56:55;101735.59;;;14.59;50.80
25232;BME280;13176;51.140;6.290;2023-04-02T15:59:39;101731.09;;;14.66;49.43
25232;BME280;13176;51.140;6.290;2023-04-02T16:02:52;101757.03;;;14.92;48.27
25232;BME280;13176;51.140;6.290;2023-04-02T16:11:27;101766.16;;;14.65;50.90
25232;BME280;13176;51.140;6.290;2023-04-02T16:14:26;101697.41;;;13.56;49.14
25232;BME280;13176;51.140;6.290;2023-04-02T16:17:29;101650.72;;;13.05;52.06
25232;BME280;13176;51.140;6.290;2023-04-02T16:31:40;101631.25;;;12.10;54.67
25232;BME280;13176;51.140;6.290;2023-04-02T17:07:43;101839.66;;;12.22;53.87
25232;BME280;13176;51.140;6.290;2023-04-02T17:16:51;101661.97;;;11.35;54.72
25232;BME280;13176;51.140;6.290;2023-04-02T17:19:25;101685.47;;;11.41;55.12
25232;BME280;13176;51.140;6.290;2023-04-02T17:22:00;101673.31;;;11.04;54.23
25232;BME280;13176;51.140;6.290;2023-04-02T17:25:05;101831.00;;;11.73;53.31
25232;BME280;13176;51.140;6.290;2023-04-02T17:27:47;101712.50;;;10.92;53.63
25232;BME280;13176;51.140;6.290;2023-04-02T17:30:30;101785.66;;;11.43;54.35
25232;BME280;13176;51.140;6.290;2023-04-02T17:33:13;101682.88;;;10.75;53.44
25232;BME280;13176;51.140;6.290;2023-04-02T17:39:01;101891.16;;;11.87;54.85
25232;BME280;13176;51.140;6.290;2023-04-02T17:44:43;101899.88;;;11.95;54.50
25232;BME280;13176;51.140;6.290;2023-04-02T17:59:59;101918.16;;;11.86;54.76
25232;BME280;13176;51.140;6.290;2023-04-02T18:02:47;101850.09;;;11.20;54.44
25232;BME280;13176;51.140;6.290;2023-04-02T18:05:51;101919.88;;;11.57;55.10